Time;durP1;ratioP1;P1;durP2;ratioP2;P2;SDS_P1;SDS_P2;PMS_P1;PMS_P2;Temp;Humidity;BMP_temperature;BMP_pressure;BME280_temperature;BME280_humidity;BME280_pressure;Samples;Min_cycle;Max_cycle;Signal;HPM_P1;HPM_P2
2022/01/15 00:00:20;;;;;;;76.93;44.55;;;;;;;5.50;74.06;102519.06;5028658;28;20076;-68
2022/01/15 00:02:48;;;;;;;72.93;44.55;;;;;;;5.78;73.15;102523.81;5031867;28;20045;-66
2022/01/15 00:05:15;;;;;;;79.07;45.63;;;;;;;5.60;73.57;102516.56;5032498;28;20054;-67
2022/01/15 00:07:47;;;;;;;78.53;45.45;;;;;;;5.53;73.89;102527.59;5032215;28;20058;-67
2022/01/15 00:10:21;;;;;;;76.60;45.85;;;;;;;5.66;73.61;102521.94;5033276;28;20068;-67
2022/01/15 00:12:48;;;;;;;78.40;47.05;;;;;;;5.70;73.24;102512.16;5033612;28;20619;-67
2022/01/15 00:15:22;;;;;;;80.43;46.92;;;;;;;5.60;73.38;102511.09;5034960;28;20060;-66
2022/01/15 00:18:01;;;;;;;74.03;44.70;;;;;;;5.76;73.23;102507.66;5034054;28;20061;-66
2022/01/15 00:20:29;;;;;;;75.10;44.40;;;;;;;5.88;72.96;102508.50;5035607;28;20057;-66
2022/01/15 00:22:59;;;;;;;78.53;45.58;;;;;;;5.79;72.62;102500.88;5039219;28;20307;-64
2022/01/15 00:25:28;;;;;;;79.45;46.45;;;;;;;5.60;73.44;102506.47;5037721;28;20045;-67
2022/01/15 00:27:55;;;;;;;75.93;45.55;;;;;;;5.59;73.75;102504.81;5038475;28;20045;-66
2022/01/15 00:30:23;;;;;;;78.65;47.65;;;;;;;5.68;73.19;102506.09;5037130;28;20523;-66
2022/01/15 00:32:54;;;;;;;88.35;49.95;;;;;;;5.27;74.20;102502.63;5038917;28;20690;-67
2022/01/15 00:35:23;;;;;;;84.15;49.45;;;;;;;5.04;75.30;102503.38;5037539;28;20060;-65
2022/01/15 00:37:51;;;;;;;88.82;49.42;;;;;;;5.14;75.91;102500.09;5038326;28;20053;-66
2022/01/15 00:40:19;;;;;;;84.68;49.05;;;;;;;5.29;74.96;102500.47;5038599;28;20349;-66
2022/01/15 00:42:47;;;;;;;80.65;48.65;;;;;;;5.25;74.80;102496.53;5020471;28;20050;-65
2022/01/15 00:45:19;;;;;;;83.45;48.25;;;;;;;5.05;76.02;102494.16;5038159;28;20052;-67
2022/01/15 00:47:51;;;;;;;76.65;47.85;;;;;;;5.27;75.24;102494.41;5037085;28;20066;-67
2022/01/15 00:50:19;;;;;;;75.88;47.63;;;;;;;5.37;74.46;102494.69;5037732;28;20060;-66
2022/01/15 00:52:46;;;;;;;73.20;45.97;;;;;;;5.50;74.18;102483.53;5020922;28;20057;-66
2022/01/15 00:55:15;;;;;;;79.85;47.65;;;;;;;5.53;73.87;102491.25;5038458;28;20050;-66
2022/01/15 00:57:42;;;;;;;85.53;48.95;;;;;;;5.19;74.45;102492.88;5037972;28;20049;-67
2022/01/15 01:00:12;;;;;;;85.20;48.67;;;;;;;5.48;74.66;102486.50;5037115;28;20109;-67
2022/01/15 01:02:39;;;;;;;;;;;;;;;5.58;73.67;102470.31;5038819;28;20500;-65
2022/01/15 01:05:07;;;;;;;86.05;48.30;;;;;;;5.46;73.90;102474.13;5038363;28;19952;-66
2022/01/15 01:07:34;;;;;;;79.32;47.63;;;;;;;5.34;74.49;102468.66;5020204;28;20053;-67
2022/01/15 01:23:29;;;;;;;83.63;49.28;;;;;;;5.52;74.21;102446.69;5031325;28;20060;-67
2022/01/15 01:26:44;;;;;;;77.15;46.95;;;;;;;5.37;73.97;102440.06;5035789;28;20048;-69
2022/01/15 01:28:56;;;;;;;80.88;47.42;;;;;;;5.23;74.65;102444.06;5013905;28;20073;-66
2022/01/15 01:31:32;;;;;;;76.57;48.03;;;;;;;5.26;75.20;102451.78;5022872;28;20062;-66
2022/01/15 01:34:07;;;;;;;80.22;47.50;;;;;;;5.33;74.47;102452.50;5037635;28;20440;-66
2022/01/15 01:39:11;;;;;;;78.18;48.08;;;;;;;5.44;74.51;102444.31;5036164;28;20049;-66
2022/01/15 01:41:42;;;;;;;75.95;47.17;;;;;;;5.15;74.64;102455.31;5037219;28;20057;-65
2022/01/15 01:44:15;;;;;;;78.90;47.92;;;;;;;4.81;76.11;102461.56;5037389;28;20054;-66
2022/01/15 01:46:52;;;;;;;80.03;47.85;;;;;;;4.63;77.14;102456.13;5037074;28;20053;-67
2022/01/15 01:49:19;;;;;;;79.28;46.85;;;;;;;4.51;77.73;102456.09;5036131;28;20050;-67
2022/01/15 01:51:47;;;;;;;78.22;47.65;;;;;;;4.69;77.92;102447.84;5018975;28;20061;-66
2022/01/15 01:54:17;;;;;;;76.78;46.42;;;;;;;5.05;76.24;102438.69;5035971;28;20041;-66
2022/01/15 01:56:44;;;;;;;79.10;46.72;;;;;;;5.07;76.29;102439.28;5035895;28;20407;-66
2022/01/15 01:59:13;;;;;;;74.95;45.55;;;;;;;4.76;77.06;102436.84;5035480;28;20053;-67
2022/01/15 02:01:40;;;;;;;76.38;45.83;;;;;;;4.99;76.48;102431.44;5035485;28;20053;-66
2022/01/15 02:04:08;;;;;;;71.88;44.58;;;;;;;5.02;76.17;102426.31;5037057;28;20058;-66
2022/01/15 02:06:36;;;;;;;77.95;44.78;;;;;;;4.98;76.15;102421.59;5036755;28;20052;-66
2022/01/15 02:09:07;;;;;;;80.10;46.95;;;;;;;4.83;76.77;102422.03;5035447;28;20057;-66
2022/01/15 02:11:34;;;;;;;80.70;46.85;;;;;;;4.47;77.51;102419.44;5036635;28;20057;-66
2022/01/15 02:14:01;;;;;;;76.63;46.00;;;;;;;4.47;78.14;102420.25;5036863;28;20053;-66
2022/01/15 02:16:28;;;;;;;73.25;44.75;;;;;;;4.69;77.28;102409.63;5035097;28;20053;-66
2022/01/15 02:18:56;;;;;;;76.38;45.45;;;;;;;4.58;77.68;102411.28;5036820;28;20064;-66
2022/01/15 02:24:09;;;;;;;79.57;46.17;;;;;;;4.68;77.04;102413.44;5036879;28;20049;-68
2022/01/15 02:26:38;;;;;;;77.93;44.97;;;;;;;4.75;76.93;102414.19;5036278;28;20061;-66
2022/01/15 02:29:07;;;;;;;73.47;44.90;;;;;;;4.89;76.76;102410.19;5035449;28;20048;-66
2022/01/15 02:31:35;;;;;;;74.68;45.00;;;;;;;4.79;76.57;102409.09;5036275;28;20759;-66
2022/01/15 02:34:05;;;;;;;74.43;45.45;;;;;;;4.90;76.46;102395.44;5035061;28;20057;-66
2022/01/15 02:36:34;;;;;;;77.70;46.17;;;;;;;4.97;76.31;102389.91;5036247;28;20072;-68
2022/01/15 02:39:06;;;;;;;76.15;45.55;;;;;;;4.89;76.18;102398.41;5036560;28;20049;-67
2022/01/15 02:41:38;;;;;;;72.15;44.00;;;;;;;4.72;76.50;102400.16;5036416;28;20055;-68
2022/01/15 02:44:10;;;;;;;69.75;43.40;;;;;;;5.03;75.79;102397.97;5018108;28;20068;-66
2022/01/15 02:49:31;;;;;;;71.18;42.72;;;;;;;4.87;75.95;102395.94;5026640;28;20053;-66
2022/01/15 02:51:58;;;;;;;71.63;44.50;;;;;;;4.54;77.13;102393.72;5018372;28;20068;-67
2022/01/15 02:54:26;;;;;;;74.00;44.75;;;;;;;4.78;76.87;102391.06;5034595;28;20069;-67
2022/01/15 02:56:54;;;;;;;71.43;44.83;;;;;;;4.66;76.83;102387.44;5035800;28;20045;-67
2022/01/15 02:59:25;;;;;;;72.40;43.30;;;;;;;4.90;76.89;102389.19;5034148;28;20064;-66
2022/01/15 03:01:53;;;;;;;81.40;45.88;;;;;;;5.02;75.52;102377.19;5034792;28;20512;-66
2022/01/15 03:04:20;;;;;;;75.32;44.97;;;;;;;4.65;76.73;102378.44;5035778;28;20163;-66
2022/01/15 03:06:48;;;;;;;78.82;46.38;;;;;;;4.75;77.02;102380.59;5015952;28;20058;-66
2022/01/15 03:09:15;;;;;;;77.28;46.30;;;;;;;4.67;77.28;102375.47;5016133;28;20057;-66
2022/01/15 03:11:42;;;;;;;78.90;46.65;;;;;;;4.70;76.84;102367.66;5015989;28;20049;-66
2022/01/15 03:14:12;;;;;;;73.20;44.25;;;;;;;4.76;76.88;102369.44;5016071;28;20056;-67
2022/01/15 03:16:39;;;;;;;73.53;43.90;;;;;;;4.89;76.32;102374.69;5014668;28;20060;-68
2022/01/15 03:19:07;;;;;;;71.72;42.53;;;;;;;4.81;76.52;102372.31;5033573;28;20061;-66
2022/01/15 03:21:34;;;;;;;77.18;45.17;;;;;;;4.79;75.73;102376.31;5034813;28;20048;-65
2022/01/15 03:24:02;;;;;;;69.80;43.13;;;;;;;4.96;75.60;102371.84;5035909;28;20048;-68
2022/01/15 03:26:29;;;;;;;75.40;43.85;;;;;;;4.89;75.93;102371.13;5035679;28;20048;-65
2022/01/15 03:28:57;;;;;;;73.55;43.58;;;;;;;4.82;75.89;102376.69;5031145;28;20056;-66
2022/01/15 03:31:24;;;;;;;73.25;44.78;;;;;;;4.89;76.21;102365.66;5035551;28;20049;-66
2022/01/15 03:33:51;;;;;;;71.68;42.53;;;;;;;4.80;76.05;102362.44;5035254;28;20049;-65
2022/01/15 03:36:19;;;;;;;70.20;43.88;;;;;;;4.90;76.11;102351.75;5035382;28;20056;-67
2022/01/15 03:38:46;;;;;;;74.80;44.75;;;;;;;4.99;75.21;102344.03;5035267;28;20068;-66
2022/01/15 03:41:16;;;;;;;73.30;45.72;;;;;;;4.68;76.52;102350.69;5035197;28;20045;-66
2022/01/15 03:43:43;;;;;;;72.65;44.53;;;;;;;4.74;76.24;102343.44;5035303;28;20056;-66
2022/01/15 03:46:11;;;;;;;73.93;45.13;;;;;;;4.64;76.48;102348.66;5035497;28;20120;-66
2022/01/15 03:48:38;;;;;;;74.70;45.97;;;;;;;4.88;76.19;102337.50;5035113;28;20045;-66
2022/01/15 03:51:05;;;;;;;78.80;46.80;;;;;;;4.99;75.69;102335.84;5001545;28;20085;-66
2022/01/15 03:53:33;;;;;;;71.95;44.28;;;;;;;4.76;75.80;102330.41;5035290;28;20484;-66
2022/01/15 03:56:00;;;;;;;69.95;42.80;;;;;;;4.90;75.84;102326.38;5035756;28;20049;-66
2022/01/15 03:58:27;;;;;;;80.45;45.33;;;;;;;4.77;76.11;102316.50;5039163;28;20388;-67
2022/01/15 04:00:55;;;;;;;74.18;45.75;;;;;;;4.80;76.02;102316.03;5039282;28;20049;-66
2022/01/15 04:03:22;;;;;;;75.35;45.75;;;;;;;4.59;76.65;102311.16;5038205;28;20052;-66
2022/01/15 04:05:50;;;;;;;77.75;46.08;;;;;;;4.46;77.25;102305.91;5038705;28;20049;-65
2022/01/15 04:08:17;;;;;;;80.00;46.40;;;;;;;4.30;78.08;102312.03;5037849;28;20057;-66
2022/01/15 04:10:44;;;;;;;73.53;44.17;;;;;;;4.21;78.72;102313.44;5037708;28;20060;-66
2022/01/15 04:13:15;;;;;;;74.25;45.60;;;;;;;4.51;77.86;102308.78;5038081;28;20637;-66
2022/01/15 04:15:43;;;;;;;76.60;45.85;;;;;;;4.63;77.30;102303.31;5038705;28;20496;-66
2022/01/15 04:18:10;;;;;;;76.25;46.05;;;;;;;4.47;77.02;102315.75;5038689;28;20173;-67
2022/01/15 04:20:38;;;;;;;75.57;45.40;;;;;;;4.49;77.15;102319.91;5021465;28;20495;-66
2022/01/15 04:23:05;;;;;;;75.32;45.78;;;;;;;4.39;77.70;102319.63;5038946;28;20786;-65
2022/01/15 04:25:32;;;;;;;72.90;44.38;;;;;;;4.33;77.80;102304.22;5037554;28;20481;-66
2022/01/15 04:28:02;;;;;;;72.88;44.10;;;;;;;4.50;77.70;102294.28;5038574;28;20520;-66
2022/01/15 04:30:35;;;;;;;72.97;44.25;;;;;;;4.56;77.08;102295.25;5038763;28;20049;-67
2022/01/15 04:33:02;;;;;;;73.85;43.90;;;;;;;4.70;77.03;102284.94;5038911;28;20046;-66
2022/01/15 04:35:30;;;;;;;73.80;43.55;;;;;;;4.70;76.32;102293.13;5038554;28;20061;-66
2022/01/15 04:38:05;;;;;;;70.82;43.45;;;;;;;4.78;76.45;102288.13;5037461;28;20080;-67
2022/01/15 04:40:32;;;;;;;73.75;41.97;;;;;;;4.77;75.56;102291.09;5038202;28;20524;-67
2022/01/15 04:42:59;;;;;;;68.82;42.55;;;;;;;4.28;77.14;102287.72;5036295;28;20065;-67
2022/01/15 04:45:26;;;;;;;70.75;43.60;;;;;;;4.42;77.90;102289.19;5036813;28;20065;-65
2022/01/15 04:47:54;;;;;;;75.45;44.30;;;;;;;4.53;77.23;102285.63;5036391;28;20049;-67
2022/01/15 04:50:22;;;;;;;69.30;43.35;;;;;;;4.64;76.91;102291.34;5038494;28;20060;-66
2022/01/15 04:52:49;;;;;;;69.60;43.42;;;;;;;4.71;75.81;102284.69;5037022;28;20076;-67
2022/01/15 04:55:16;;;;;;;71.95;44.22;;;;;;;4.71;76.42;102284.69;5038324;28;20046;-66
2022/01/15 04:57:43;;;;;;;72.75;44.13;;;;;;;4.52;76.67;102292.16;5037923;28;20049;-66
2022/01/15 05:00:14;;;;;;;72.47;44.35;;;;;;;4.41;77.07;102281.25;5036268;28;20049;-66
2022/01/15 05:02:41;;;;;;;75.82;43.22;;;;;;;4.62;76.90;102283.38;5038242;28;20049;-66
2022/01/15 05:05:09;;;;;;;76.10;44.70;;;;;;;4.73;76.43;102281.72;5017011;28;20057;-66
2022/01/15 05:07:36;;;;;;;73.55;44.17;;;;;;;4.87;75.71;102284.00;5017784;28;20061;-66
2022/01/15 05:10:05;;;;;;;72.68;43.20;;;;;;;4.81;75.78;102292.31;5016864;28;20065;-66
2022/01/15 05:12:42;;;;;;;81.13;45.80;;;;;;;4.33;76.88;102268.75;5018126;28;20050;-65
2022/01/15 05:15:13;;;;;;;72.85;43.55;;;;;;;4.26;77.83;102272.66;5018020;28;20062;-66
2022/01/15 05:17:41;;;;;;;76.88;43.65;;;;;;;4.23;77.87;102273.97;5033838;28;20056;-66
2022/01/15 05:20:10;;;;;;;73.88;44.67;;;;;;;4.35;77.43;102274.81;5037934;28;20523;-66
2022/01/15 05:22:37;;;;;;;81.78;46.15;;;;;;;4.71;76.69;102271.06;5037745;28;20516;-66
2022/01/15 05:25:07;;;;;;;76.18;45.78;;;;;;;4.53;76.70;102271.97;5036119;28;20069;-67
2022/01/15 05:27:41;;;;;;;82.68;45.35;;;;;;;4.26;77.08;102278.94;5036406;28;20476;-66
2022/01/15 05:30:09;;;;;;;74.97;46.00;;;;;;;3.96;78.63;102280.03;5020286;28;20580;-66
2022/01/15 05:32:37;;;;;;;76.70;43.63;;;;;;;4.24;78.58;102278.34;5016974;28;20065;-66
2022/01/15 05:35:04;;;;;;;73.78;43.80;;;;;;;4.29;77.50;102278.47;5035883;28;20053;-65
2022/01/15 05:37:32;;;;;;;77.13;45.03;;;;;;;4.25;77.33;102273.72;5036570;28;20054;-65
2022/01/15 05:39:59;;;;;;;72.18;43.90;;;;;;;4.06;78.23;102272.13;5036002;28;20060;-66
2022/01/15 05:42:27;;;;;;;75.35;44.13;;;;;;;4.28;77.94;102275.97;5037218;28;20046;-66
2022/01/15 05:44:54;;;;;;;75.13;44.33;;;;;;;4.18;78.09;102278.47;5037381;28;20053;-66
2022/01/15 05:47:21;;;;;;;70.45;41.78;;;;;;;4.36;77.77;102276.47;5037374;28;20056;-66
2022/01/15 05:49:49;;;;;;;70.47;42.78;;;;;;;4.19;77.86;102280.94;5018355;28;20068;-66
2022/01/15 05:52:16;;;;;;;71.97;42.28;;;;;;;4.13;77.74;102276.41;5037254;28;20515;-66
2022/01/15 05:54:43;;;;;;;65.95;40.90;;;;;;;3.86;79.08;102283.31;5037180;28;20056;-66
2022/01/15 05:57:10;;;;;;;64.70;40.50;;;;;;;4.09;78.86;102285.31;5036709;28;20053;-66
2022/01/15 05:59:38;;;;;;;67.75;40.10;;;;;;;4.18;78.04;102290.19;5037258;28;20045;-67
2022/01/15 06:02:08;;;;;;;61.80;39.75;;;;;;;4.19;78.27;102288.28;5037184;28;20045;-65
2022/01/15 06:04:35;;;;;;;64.80;39.83;;;;;;;4.43;77.23;102284.53;5035841;28;20045;-66
2022/01/15 06:07:03;;;;;;;64.38;38.88;;;;;;;4.25;77.01;102279.19;5037176;28;20049;-66
2022/01/15 06:09:30;;;;;;;64.45;40.05;;;;;;;4.26;77.12;102291.75;5036751;28;20060;-67
2022/01/15 06:12:00;;;;;;;62.70;38.67;;;;;;;3.96;77.92;102286.31;5036833;28;20053;-67
2022/01/15 06:14:29;;;;;;;69.65;39.75;;;;;;;3.74;78.97;102290.63;5036665;28;20069;-67
2022/01/15 06:17:00;;;;;;;66.25;39.30;;;;;;;3.84;79.17;102287.31;5034495;28;20178;-65
2022/01/15 06:19:27;;;;;;;66.50;39.08;;;;;;;4.05;78.72;102289.53;5035963;28;20152;-67
2022/01/15 06:21:56;;;;;;;62.55;38.10;;;;;;;4.25;77.30;102282.72;5035669;28;20378;-67
2022/01/15 06:24:23;;;;;;;61.60;37.50;;;;;;;4.39;77.08;102278.72;5035316;28;20488;-66
2022/01/15 06:26:50;;;;;;;61.58;37.35;;;;;;;4.31;76.84;102278.22;5035132;28;20069;-66
2022/01/15 06:29:19;;;;;;;61.10;38.10;;;;;;;4.32;76.68;102285.38;5035207;28;20080;-65
2022/01/15 06:31:46;;;;;;;62.08;37.30;;;;;;;4.27;76.83;102280.59;5030313;28;20062;-66
2022/01/15 06:34:14;;;;;;;62.63;35.47;;;;;;;4.20;76.56;102273.59;5019119;28;20532;-66
2022/01/15 06:36:41;;;;;;;61.38;36.80;;;;;;;4.24;76.60;102275.63;5023698;28;20046;-65
2022/01/15 06:39:08;;;;;;;60.85;36.42;;;;;;;4.21;76.78;102275.25;5036082;28;20057;-66
2022/01/15 06:41:35;;;;;;;56.65;34.95;;;;;;;4.19;76.59;102266.47;5036030;28;20071;-66
2022/01/15 06:44:03;;;;;;;64.15;37.38;;;;;;;4.14;77.11;102269.91;5036344;28;20060;-65
2022/01/15 06:46:30;;;;;;;62.75;37.40;;;;;;;3.91;77.17;102277.16;5036305;28;20056;-65
2022/01/15 06:48:57;;;;;;;61.78;37.83;;;;;;;3.60;79.00;102286.41;5041098;28;20056;-66
2022/01/15 06:51:25;;;;;;;63.85;38.60;;;;;;;3.86;78.95;102274.31;5056298;28;20060;-66
2022/01/15 06:53:52;;;;;;;62.78;37.70;;;;;;;3.98;77.91;102272.44;5054843;28;20056;-66
2022/01/15 06:56:19;;;;;;;61.83;36.72;;;;;;;4.01;77.84;102267.38;5055870;28;20053;-65
2022/01/15 06:58:47;;;;;;;68.28;37.88;;;;;;;4.13;77.04;102254.59;5013153;28;20057;-66
2022/01/15 07:01:14;;;;;;;60.50;35.33;;;;;;;4.31;77.09;102251.81;5034828;28;20053;-66
2022/01/15 07:03:41;;;;;;;61.80;36.38;;;;;;;4.09;77.15;102258.03;5036130;28;20050;-66
2022/01/15 07:06:09;;;;;;;58.55;36.08;;;;;;;3.93;77.99;102255.97;5036037;28;20064;-67
2022/01/15 07:08:37;;;;;;;60.40;37.15;;;;;;;3.89;78.58;102249.34;5035881;28;20500;-67
2022/01/15 07:11:04;;;;;;;62.88;36.70;;;;;;;4.14;78.20;102244.53;5034968;28;20049;-66
2022/01/15 07:13:33;;;;;;;65.95;37.38;;;;;;;3.83;77.97;102242.91;5034641;28;20519;-66
2022/01/15 07:16:00;;;;;;;64.63;38.47;;;;;;;3.85;78.61;102246.25;5017496;28;20045;-66
2022/01/15 07:18:28;;;;;;;58.45;35.22;;;;;;;4.00;78.24;102246.63;5034920;28;20038;-68
2022/01/15 07:20:55;;;;;;;61.00;36.67;;;;;;;4.13;77.21;102243.69;5035926;28;20072;-69
2022/01/15 07:23:23;;;;;;;66.60;38.60;;;;;;;3.97;77.73;102246.28;5034820;28;20045;-70
2022/01/15 07:25:50;;;;;;;65.82;37.15;;;;;;;3.80;78.91;102248.81;5043892;28;20052;-70
2022/01/15 07:28:18;;;;;;;66.30;39.88;;;;;;;3.67;79.10;102251.72;5037526;28;20049;-69
2022/01/15 07:30:46;;;;;;;68.97;39.30;;;;;;;3.66;79.87;102247.31;5054206;28;20412;-71
2022/01/15 07:33:13;;;;;;;61.47;37.60;;;;;;;3.89;79.07;102243.88;5041675;28;20058;-71
2022/01/15 07:35:43;;;;;;;67.13;38.40;;;;;;;4.05;78.61;102240.47;5035832;28;20049;-70
2022/01/15 07:38:14;;;;;;;62.38;36.53;;;;;;;4.22;78.22;102239.56;5035777;28;20040;-70
2022/01/15 07:40:41;;;;;;;61.92;36.80;;;;;;;4.21;77.69;102229.72;5033965;28;20069;-71
2022/01/15 07:43:09;;;;;;;69.45;44.35;;;;;;;4.24;77.35;102236.59;5035562;28;20068;-71
2022/01/15 07:45:42;;;;;;;66.72;39.88;;;;;;;4.06;77.21;102223.88;5034292;28;20499;-71
2022/01/15 07:48:09;;;;;;;61.92;37.75;;;;;;;4.00;78.06;102235.72;5035822;28;20056;-71
2022/01/15 07:50:37;;;;;;;65.68;38.10;;;;;;;3.79;78.89;102233.53;5034308;28;20041;-71
2022/01/15 07:53:04;;;;;;;66.55;39.58;;;;;;;3.97;79.02;102238.94;5035588;28;20058;-70
2022/01/15 07:55:31;;;;;;;63.90;39.53;;;;;;;4.01;78.45;102245.56;5035762;28;20045;-70
2022/01/15 07:58:03;;;;;;;65.50;39.38;;;;;;;3.92;78.34;102241.53;5033920;28;20052;-70
2022/01/15 08:00:32;;;;;;;68.90;38.80;;;;;;;3.89;79.46;102246.59;5033978;28;20049;-71
2022/01/15 08:02:59;;;;;;;66.75;39.08;;;;;;;4.09;78.60;102239.78;5034283;28;20400;-70
2022/01/15 08:05:27;;;;;;;67.80;39.05;;;;;;;4.13;77.90;102235.50;5035463;28;20080;-69
2022/01/15 08:07:54;;;;;;;63.03;38.60;;;;;;;3.98;78.60;102235.13;5033542;28;20049;-71
2022/01/15 08:10:21;;;;;;;65.93;40.03;;;;;;;3.89;78.87;102235.72;5035577;28;20057;-70
2022/01/15 08:12:49;;;;;;;70.80;43.38;;;;;;;4.09;78.82;102223.44;5033991;28;20045;-70
2022/01/15 08:15:18;;;;;;;71.30;43.00;;;;;;;4.07;78.18;102227.44;5034013;28;20065;-70
2022/01/15 08:17:46;;;;;;;66.93;38.90;;;;;;;4.10;77.89;102225.06;5035160;28;20045;-70
2022/01/15 08:20:14;;;;;;;65.85;38.08;;;;;;;3.93;78.15;102226.81;5035365;28;20054;-72
2022/01/15 08:22:42;;;;;;;66.25;39.70;;;;;;;4.04;78.10;102230.66;5032720;28;20049;-70
2022/01/15 08:25:12;;;;;;;64.85;39.28;;;;;;;4.16;77.94;102226.88;5017830;28;20050;-71
2022/01/15 08:27:39;;;;;;;71.80;43.53;;;;;;;4.19;77.62;102231.03;5034926;28;20049;-70
2022/01/15 08:30:07;;;;;;;65.15;38.85;;;;;;;4.03;77.66;102224.34;5034163;28;20538;-70
2022/01/15 08:32:35;;;;;;;63.30;39.10;;;;;;;4.09;78.00;102225.31;5033667;28;20060;-71
2022/01/15 08:35:05;;;;;;;69.32;40.22;;;;;;;3.99;77.39;102225.88;5015884;28;20050;-72
2022/01/15 08:37:34;;;;;;;69.72;41.20;;;;;;;4.02;77.93;102230.88;5015434;28;20489;-72
2022/01/15 08:40:02;;;;;;;68.95;42.05;;;;;;;4.27;77.59;102222.50;5032060;28;20056;-72
2022/01/15 08:42:29;;;;;;;74.07;43.63;;;;;;;4.21;77.29;102227.00;5037203;28;20053;-73
2022/01/15 08:44:57;;;;;;;70.20;42.88;;;;;;;4.27;77.04;102226.06;5038539;28;20046;-71
2022/01/15 08:47:25;;;;;;;78.82;45.65;;;;;;;4.22;77.17;102216.94;5037255;28;20045;-71
2022/01/15 08:49:53;;;;;;;70.88;44.03;;;;;;;3.97;77.82;102225.31;5018855;28;20045;-70
2022/01/15 08:52:20;;;;;;;79.22;47.15;;;;;;;3.91;78.54;102228.94;5019146;28;20056;-70
2022/01/15 08:54:47;;;;;;;75.55;45.05;;;;;;;3.96;78.50;102231.81;5023588;28;20045;-70
2022/01/15 08:57:15;;;;;;;74.07;44.00;;;;;;;3.87;78.61;102235.91;5036881;28;20052;-72
2022/01/15 08:59:43;;;;;;;76.68;44.35;;;;;;;4.04;78.78;102241.53;5036865;28;20496;-71
2022/01/15 09:02:10;;;;;;;83.65;50.55;;;;;;;4.36;77.82;102237.44;5035208;28;20052;-70
2022/01/15 09:04:38;;;;;;;81.13;47.42;;;;;;;4.42;76.98;102240.09;5034240;28;20053;-70
2022/01/15 09:07:08;;;;;;;79.63;46.47;;;;;;;4.17;77.18;102239.44;5038300;28;20056;-66
2022/01/15 09:09:35;;;;;;;71.07;43.35;;;;;;;4.13;78.00;102242.88;5038037;28;20045;-67
2022/01/15 09:12:03;;;;;;;74.63;44.55;;;;;;;4.20;77.65;102238.97;5038243;28;20060;-67
2022/01/15 09:14:30;;;;;;;68.57;43.03;;;;;;;4.23;77.39;102248.59;5036412;28;20057;-67
2022/01/15 09:16:58;;;;;;;76.00;44.15;;;;;;;3.99;77.95;102244.94;5038213;28;20065;-66
2022/01/15 09:19:25;;;;;;;75.03;42.83;;;;;;;4.46;77.20;102243.97;5036970;28;20052;-70
2022/01/15 09:21:52;;;;;;;69.35;42.13;;;;;;;4.47;77.21;102240.19;5017547;28;20056;-70
2022/01/15 09:24:20;;;;;;;71.07;43.10;;;;;;;4.68;76.05;102240.66;5033564;28;20049;-70
2022/01/15 09:32:10;;;;;;;64.25;40.90;;;;;;;4.96;74.77;102233.44;5033660;28;20060;-72
2022/01/15 09:34:38;;;;;;;70.03;42.47;;;;;;;4.83;74.96;102232.84;5033444;28;20049;-71
2022/01/15 09:37:06;;;;;;;70.07;42.47;;;;;;;4.64;75.67;102240.31;5035325;28;20415;-70
2022/01/15 09:39:34;;;;;;;66.53;42.15;;;;;;;4.67;75.75;102247.22;5033006;28;20053;-67
2022/01/15 09:42:02;;;;;;;74.47;43.78;;;;;;;4.83;75.50;102246.50;5033333;28;20064;-66
2022/01/15 09:44:32;;;;;;;72.05;43.78;;;;;;;4.82;75.09;102239.38;5032234;28;20129;-65
2022/01/15 09:47:00;;;;;;;68.82;41.35;;;;;;;4.75;76.09;102244.94;5034086;28;20056;-67
2022/01/15 09:49:28;;;;;;;68.13;42.88;;;;;;;5.02;74.39;102245.28;5033925;28;20033;-64
2022/01/15 09:51:56;;;;;;;69.65;42.67;;;;;;;4.78;75.24;102236.28;5031778;28;20046;-68
2022/01/15 09:54:24;;;;;;;66.57;40.40;;;;;;;5.02;74.76;102234.38;5031722;28;20060;-64
2022/01/15 09:56:52;;;;;;;73.50;42.28;;;;;;;5.12;74.48;102227.22;5035284;28;20053;-66
2022/01/15 09:59:21;;;;;;;72.65;42.50;;;;;;;5.17;74.22;102224.59;5036031;28;20044;-69
2022/01/15 10:01:49;;;;;;;64.20;41.83;;;;;;;5.16;74.11;102235.78;5049497;28;20060;-73
2022/01/15 10:04:17;;;;;;;69.97;41.90;;;;;;;5.60;73.62;102229.56;5031679;28;20050;-71
2022/01/15 10:07:13;;;;;;;67.60;40.72;;;;;;;5.90;72.68;102223.88;5033581;28;20049;-70
2022/01/15 10:09:41;;;;;;;66.60;42.53;;;;;;;5.86;71.89;102229.00;5034534;28;20056;-72
2022/01/15 10:12:10;;;;;;;67.53;41.40;;;;;;;6.18;71.75;102232.88;5035931;28;20568;-70
2022/01/15 10:14:42;;;;;;;68.38;43.20;;;;;;;6.11;70.57;102234.94;5036782;28;20500;-72
2022/01/15 10:17:33;;;;;;;73.57;43.50;;;;;;;6.45;71.44;102233.06;5034907;28;20060;-71
2022/01/15 10:20:07;;;;;;;66.85;42.58;;;;;;;6.12;70.31;102235.78;5033559;28;20045;-65
2022/01/15 10:22:34;;;;;;;66.00;42.80;;;;;;;5.80;70.89;102229.13;5032730;28;20057;-73
2022/01/15 10:25:10;;;;;;;67.18;42.95;;;;;;;6.14;70.85;102231.69;5033863;28;20050;-74
2022/01/15 10:27:40;;;;;;;68.32;42.20;;;;;;;6.16;70.69;102218.63;5031843;28;20041;-71
2022/01/15 10:30:13;;;;;;;67.00;42.42;;;;;;;6.40;70.12;102213.78;5026205;28;20420;-70
2022/01/15 10:33:00;;;;;;;65.40;42.35;;;;;;;6.22;69.95;102203.13;5035028;28;20411;-71
2022/01/15 10:35:38;;;;;;;72.88;45.88;;;;;;;6.12;70.50;102209.22;5034664;28;20052;-71
2022/01/15 10:38:07;;;;;;;75.40;45.85;;;;;;;6.36;70.08;102204.44;5036778;28;20064;-69
2022/01/15 10:40:40;;;;;;;72.65;45.33;;;;;;;6.34;70.16;102201.13;5035591;28;20049;-71
2022/01/15 10:43:10;;;;;;;73.03;47.20;;;;;;;6.41;69.44;102202.63;5035619;28;20066;-70
2022/01/15 10:46:09;;;;;;;74.03;46.47;;;;;;;6.56;69.22;102194.63;5030157;28;20056;-73
2022/01/15 10:48:39;;;;;;;77.72;46.40;;;;;;;6.41;69.28;102194.41;5013703;28;20057;-70
2022/01/15 10:51:14;;;;;;;75.53;47.38;;;;;;;6.66;69.30;102196.69;5016911;28;20405;-70
2022/01/15 10:53:47;;;;;;;74.63;47.50;;;;;;;6.58;69.16;102195.22;5035452;28;20058;-70
2022/01/15 10:56:16;;;;;;;73.50;47.88;;;;;;;6.62;69.27;102184.59;5037666;28;20050;-70
2022/01/15 10:58:43;;;;;;;77.72;48.53;;;;;;;6.77;68.58;102191.13;5035975;28;20408;-69
2022/01/15 11:01:25;;;;;;;81.57;50.70;;;;;;;6.92;68.46;102184.19;5037145;28;20053;-71
2022/01/15 11:03:52;;;;;;;86.47;51.88;;;;;;;6.79;68.19;102188.97;5032470;28;20053;-71
2022/01/15 11:06:37;;;;;;;81.43;53.47;;;;;;;6.88;68.50;102185.78;5036712;28;20404;-71
2022/01/15 11:09:04;;;;;;;81.28;50.65;;;;;;;6.89;67.92;102190.19;5002398;28;20065;-70
2022/01/15 11:11:32;;;;;;;84.03;53.38;;;;;;;6.76;68.21;102178.50;5014797;28;20048;-71
2022/01/15 11:14:00;;;;;;;80.80;53.10;;;;;;;6.81;68.34;102175.84;5028433;28;20379;-72
2022/01/15 11:16:27;;;;;;;89.53;53.28;;;;;;;6.98;67.91;102174.94;5035946;28;20050;-69
2022/01/15 11:18:56;;;;;;;78.03;52.65;;;;;;;7.26;67.23;102161.91;5019038;28;20053;-68
2022/01/15 11:21:29;;;;;;;82.35;52.60;;;;;;;7.39;66.86;102156.00;5034038;28;20061;-67
2022/01/15 11:24:03;;;;;;;86.13;55.65;;;;;;;6.96;67.74;102164.25;5036342;28;20064;-68
2022/01/15 11:26:35;;;;;;;88.38;55.85;;;;;;;6.72;68.79;102166.41;5015980;28;20056;-71
2022/01/15 11:29:02;;;;;;;89.45;57.38;;;;;;;6.72;68.42;102162.81;5016539;28;20054;-70
2022/01/15 11:31:31;;;;;;;90.13;56.70;;;;;;;6.70;68.73;102163.09;5029469;28;20068;-69
2022/01/15 11:34:01;;;;;;;86.03;59.10;;;;;;;6.60;69.57;102152.00;5031770;28;20065;-67
2022/01/15 11:36:30;;;;;;;;;;;;;;;6.81;68.73;102142.16;5043337;28;20045;-70
2022/01/15 11:38:58;;;;;;;92.07;57.25;;;;;;;6.74;69.16;102147.81;5026774;28;19928;-69
2022/01/15 11:41:26;;;;;;;94.57;59.28;;;;;;;6.83;68.42;102138.06;5009703;28;20054;-69
2022/01/15 11:43:54;;;;;;;92.97;58.15;;;;;;;6.88;68.58;102133.75;5024485;28;20057;-68
2022/01/15 11:46:25;;;;;;;98.25;60.40;;;;;;;7.32;67.45;102129.91;5025730;28;20053;-69
2022/01/15 11:49:31;;;;;;;86.90;58.25;;;;;;;7.68;66.31;102129.16;5035273;28;20057;-69
2022/01/15 11:52:04;;;;;;;91.68;60.85;;;;;;;7.65;65.55;102116.78;5035300;28;20053;-66